Time;durP1;ratioP1;P1;durP2;ratioP2;P2;SDS_P1;SDS_P2;PMS_P1;PMS_P2;Temp;Humidity;BMP_temperature;BMP_pressure;BME280_temperature;BME280_humidity;BME280_pressure;Samples;Min_cycle;Max_cycle;Signal;HPM_P1;HPM_P2
2022/05/17 00:01:37;;;;;;;;;;;;;;;17.34;78.25;152010.81;1824873;78;20782;-60
2022/05/17 00:04:04;;;;;;;;;;;;;;;17.34;77.94;152010.81;1824946;78;20501;-59
2022/05/17 00:06:32;;;;;;;;;;;;;;;17.34;77.77;152010.81;1824288;78;21218;-59
2022/05/17 00:08:59;;;;;;;;;;;;;;;17.36;77.55;152014.75;1824363;78;20209;-58
2022/05/17 00:11:28;;;;;;;;;;;;;;;17.37;77.30;152017.34;1814584;78;20322;-59
2022/05/17 00:13:57;;;;;;;;;;;;;;;17.36;77.38;152016.06;1760112;81;20422;-59
2022/05/17 00:16:24;;;;;;;;;;;;;;;17.42;77.26;152031.70;1796689;79;20182;-59
2022/05/17 00:18:51;;;;;;;;;;;;;;;17.45;76.69;152038.19;1796947;79;21380;-59
2022/05/17 00:21:18;;;;;;;;;;;;;;;17.42;76.56;152031.70;1796583;79;20172;-61
2022/05/17 00:23:44;;;;;;;;;;;;;;;17.44;76.24;152036.91;1797150;79;20084;-60
2022/05/17 00:26:11;;;;;;;;;;;;;;;17.44;75.87;152035.58;1797116;79;20658;-58
2022/05/17 00:28:38;;;;;;;;;;;;;;;17.39;75.69;152023.89;1797257;79;20171;-59
2022/05/17 00:31:10;;;;;;;;;;;;;;;17.32;75.62;152006.92;1757592;80;21285;-60
2022/05/17 00:33:34;;;;;;;;;;;;;;;17.26;75.65;151989.97;1784908;80;20175;-60
2022/05/17 00:36:02;;;;;;;;;;;;;;;17.23;75.84;151982.16;1785684;80;20203;-60
2022/05/17 00:38:29;;;;;;;;;;;;;;;17.22;75.79;151979.55;1785893;79;20216;-60
2022/05/17 00:40:56;;;;;;;;;;;;;;;17.17;76.04;151967.80;1786164;79;20204;-60
2022/05/17 00:44:42;;;;;;;;;;;;;;;17.13;76.40;151957.38;1786365;79;21213;-59
2022/05/17 00:46:01;;;;;;;;;;;;;;;17.08;76.63;151944.36;1781572;80;20628;-59
2022/05/17 00:48:28;;;;;;;;;;;;;;;17.02;77.18;151930.00;1777831;80;20498;-58
2022/05/17 00:50:55;;;;;;;;;;;;;;;17.01;77.43;151927.41;1771865;81;20446;-58
2022/05/17 00:53:31;;;;;;;;;;;;;;;16.97;77.68;151916.94;1771759;81;21005;-59
2022/05/17 00:55:59;;;;;;;;;;;;;;;16.90;78.03;151899.97;1771640;81;21210;-59
2022/05/17 00:58:32;;;;;;;;;;;;;;;16.87;78.10;151893.44;1771540;81;20196;-59
2022/05/17 01:01:07;;;;;;;;;;;;;;;16.84;78.24;151885.62;1771778;81;20212;-59
2022/05/17 01:03:58;;;;;;;;;;;;;;;16.92;78.07;151903.91;1771944;80;20172;-58
2022/05/17 01:06:39;;;;;;;;;;;;;;;16.99;77.54;151922.19;1771626;81;20191;-59
2022/05/17 01:09:07;;;;;;;;;;;;;;;17.07;76.86;151943.03;1771927;80;21841;-58
2022/05/17 01:11:35;;;;;;;;;;;;;;;17.08;76.13;151945.63;1762248;81;20159;-59
2022/05/17 01:16:50;;;;;;;;;;;;;;;17.14;75.27;151961.31;1746094;81;20129;-60
2022/05/17 01:19:17;;;;;;;;;;;;;;;17.18;74.36;151971.73;1745773;82;20207;-60
2022/05/17 01:21:44;;;;;;;;;;;;;;;17.16;73.64;151966.52;1746183;81;21096;-60
2022/05/17 01:24:11;;;;;;;;;;;;;;;17.12;73.02;151956.05;1745574;80;20513;-59
2022/05/17 01:26:42;;;;;;;;;;;;;;;17.05;73.02;151937.81;1745631;81;20145;-59
2022/05/17 01:29:12;;;;;;;;;;;;;;;17.05;72.95;151937.81;1745607;80;21017;-59
2022/05/17 01:31:39;;;;;;;;;;;;;;;17.10;72.71;151950.84;1745296;81;20204;-59
2022/05/17 01:34:08;;;;;;;;;;;;;;;17.15;72.44;151963.92;1745054;82;21215;-59
2022/05/17 01:36:34;;;;;;;;;;;;;;;17.21;71.97;151976.94;1744940;81;20197;-59
2022/05/17 01:39:02;;;;;;;;;;;;;;;17.20;71.14;151975.61;1745051;80;20208;-59
2022/05/17 01:41:29;;;;;;;;;;;;;;;17.13;70.80;151958.70;1764445;80;20207;-59
2022/05/17 01:43:56;;;;;;;;;;;;;;;17.11;70.77;151953.45;1771129;80;20192;-59
2022/05/17 01:46:22;;;;;;;;;;;;;;;17.08;70.67;151945.63;1771235;80;21078;-59
2022/05/17 01:48:51;;;;;;;;;;;;;;;17.10;70.61;151950.84;1776215;80;20397;-58
2022/05/17 01:51:20;;;;;;;;;;;;;;;17.11;70.44;151953.45;1780019;79;20203;-59
2022/05/17 01:53:48;;;;;;;;;;;;;;;17.11;70.47;151953.45;1780044;79;20175;-59
2022/05/17 01:56:15;;;;;;;;;;;;;;;17.16;70.42;151966.52;1780245;79;20219;-59
2022/05/17 01:58:41;;;;;;;;;;;;;;;17.22;70.03;151980.81;1780322;79;21212;-59
2022/05/17 02:01:09;;;;;;;;;;;;;;;17.25;69.73;151987.36;1779951;80;20976;-58
2022/05/17 02:03:36;;;;;;;;;;;;;;;17.28;69.52;151995.17;1780385;80;20204;-59
2022/05/17 02:06:03;;;;;;;;;;;;;;;17.26;69.09;151989.97;1780079;80;20488;-59
2022/05/17 02:08:30;;;;;;;;;;;;;;;17.22;68.96;151979.55;1780618;79;20132;-60
2022/05/17 02:10:57;;;;;;;;;;;;;;;17.17;68.62;151969.13;1778460;79;21192;-60
2022/05/17 02:13:24;;;;;;;;;;;;;;;17.13;68.95;151958.70;1785929;80;20209;-61
2022/05/17 02:15:51;;;;;;;;;;;;;;;17.17;69.49;151969.13;1754750;80;20085;-60
2022/05/17 02:18:18;;;;;;;;;;;;;;;17.18;69.50;151971.73;1754696;80;20203;-60
2022/05/17 02:20:44;;;;;;;;;;;;;;;17.16;69.25;151965.19;1755596;80;20176;-61
2022/05/17 02:23:12;;;;;;;;;;;;;;;17.16;69.20;151965.19;1754729;81;21210;-61
2022/05/17 02:25:39;;;;;;;;;;;;;;;17.09;68.84;151948.23;1781489;80;20641;-60
2022/05/17 02:28:10;;;;;;;;;;;;;;;16.98;69.44;151919.53;1781112;80;20225;-60
2022/05/17 02:30:39;;;;;;;;;;;;;;;16.87;69.64;151893.44;1781577;80;20491;-60
2022/05/17 02:33:06;;;;;;;;;;;;;;;16.80;70.20;151875.22;1781386;80;20629;-59
2022/05/17 02:35:33;;;;;;;;;;;;;;;16.81;70.69;151877.81;1781398;80;21395;-60
2022/05/17 02:37:59;;;;;;;;;;;;;;;16.81;70.59;151877.81;1781011;80;20528;-61
2022/05/17 02:40:27;;;;;;;;;;;;;;;16.80;70.02;151875.22;1782122;80;20199;-60
2022/05/17 02:42:53;;;;;;;;;;;;;;;16.83;68.89;151883.03;1752588;81;20413;-60
2022/05/17 02:45:20;;;;;;;;;;;;;;;16.89;67.56;151897.38;1765580;80;20195;-60
2022/05/17 02:47:47;;;;;;;;;;;;;;;16.96;66.87;151915.59;1748866;82;21095;-60
2022/05/17 02:50:15;;;;;;;;;;;;;;;17.00;66.92;151926.06;1773399;81;20206;-61
2022/05/17 02:52:42;;;;;;;;;;;;;;;17.07;68.38;151943.03;1773234;80;20192;-60
2022/05/17 02:55:09;;;;;;;;;;;;;;;17.18;70.41;151971.73;1773147;81;20220;-60
2022/05/17 02:57:37;;;;;;;;;;;;;;;17.24;71.99;151984.75;1772736;81;20215;-60
2022/05/17 03:00:06;;;;;;;;;;;;;;;17.23;72.96;151982.16;1773589;80;21170;-59
2022/05/17 03:02:32;;;;;;;;;;;;;;;17.25;73.45;151988.69;1773116;81;20179;-62
2022/05/17 03:04:59;;;;;;;;;;;;;;;17.23;73.89;151982.16;1772965;81;20211;-60
2022/05/17 03:07:26;;;;;;;;;;;;;;;17.23;74.35;151982.16;1773027;81;20478;-61
2022/05/17 03:09:54;;;;;;;;;;;;;;;17.25;74.58;151988.69;1772619;81;20144;-60
2022/05/17 03:12:21;;;;;;;;;;;;;;;17.21;74.80;151976.94;1773541;80;21126;-59
2022/05/17 03:14:49;;;;;;;;;;;;;;;17.21;74.50;151976.94;1774380;80;20390;-61
2022/05/17 03:17:17;;;;;;;;;;;;;;;17.21;74.23;151976.94;1773450;80;20520;-59
2022/05/17 03:19:44;;;;;;;;;;;;;;;17.21;74.02;151976.94;1774118;80;20208;-59
2022/05/17 03:22:11;;;;;;;;;;;;;;;17.22;73.13;151980.81;1773877;80;21066;-59
2022/05/17 03:24:38;;;;;;;;;;;;;;;17.14;72.17;151961.31;1773779;80;21226;-60
2022/05/17 03:27:05;;;;;;;;;;;;;;;17.05;71.64;151937.81;1773407;80;20195;-61
2022/05/17 03:29:33;;;;;;;;;;;;;;;16.96;70.96;151914.33;1774160;79;20484;-61
2022/05/17 03:32:00;;;;;;;;;;;;;;;16.89;70.93;151897.38;1773831;79;21062;-60
2022/05/17 03:34:27;;;;;;;;;;;;;;;16.88;70.85;151896.05;1774222;79;21042;-59
2022/05/17 03:36:54;;;;;;;;;;;;;;;16.85;70.44;151886.95;1774148;79;21219;-60
2022/05/17 03:39:20;;;;;;;;;;;;;;;16.81;71.12;151877.81;1773847;79;20184;-59
2022/05/17 03:41:47;;;;;;;;;;;;;;;16.77;71.28;151867.41;1774448;80;20180;-59
2022/05/17 03:44:15;;;;;;;;;;;;;;;16.70;71.55;151849.17;1774404;79;20402;-59
2022/05/17 03:46:42;;;;;;;;;;;;;;;16.66;71.95;151838.70;1774655;80;20452;-58
2022/05/17 03:49:09;;;;;;;;;;;;;;;16.63;72.33;151830.89;1773942;80;21230;-61
2022/05/17 03:51:35;;;;;;;;;;;;;;;16.61;72.39;151828.28;1774285;80;20460;-61
2022/05/17 03:54:02;;;;;;;;;;;;;;;16.64;72.19;151833.50;1774053;79;20192;-59
2022/05/17 03:56:30;;;;;;;;;;;;;;;16.60;71.92;151824.41;1774970;80;20509;-60
2022/05/17 03:58:56;;;;;;;;;;;;;;;16.55;71.72;151811.33;1774646;79;20464;-59
2022/05/17 04:01:23;;;;;;;;;;;;;;;16.51;71.54;151802.25;1774691;80;21075;-60
2022/05/17 04:03:50;;;;;;;;;;;;;;;16.47;71.23;151793.11;1774701;79;20170;-59
2022/05/17 04:06:19;;;;;;;;;;;;;;;16.52;71.23;151804.84;1774386;79;20108;-60
2022/05/17 04:08:46;;;;;;;;;;;;;;;16.59;71.78;151821.80;1774437;79;21001;-60
2022/05/17 04:11:13;;;;;;;;;;;;;;;16.68;72.10;151843.91;1771864;80;20176;-61
2022/05/17 04:13:40;;;;;;;;;;;;;;;16.78;72.35;151870.00;1763481;80;21477;-58
2022/05/17 04:16:07;;;;;;;;;;;;;;;16.87;72.40;151893.44;1762868;80;20725;-60
2022/05/17 04:18:34;;;;;;;;;;;;;;;16.96;71.53;151915.59;1763575;81;20188;-58
2022/05/17 04:21:01;;;;;;;;;;;;;;;17.00;68.40;151924.80;1764090;81;20184;-59
2022/05/17 04:23:29;;;;;;;;;;;;;;;17.05;67.62;151937.81;1763835;81;20184;-59
2022/05/17 04:25:56;;;;;;;;;;;;;;;17.14;67.68;151961.31;1763420;81;21245;-58
2022/05/17 04:28:23;;;;;;;;;;;;;;;17.10;67.67;151950.84;1763575;81;20860;-60
2022/05/17 04:30:50;;;;;;;;;;;;;;;17.03;68.64;151933.94;1763638;81;20185;-59
2022/05/17 04:33:17;;;;;;;;;;;;;;;16.96;69.57;151914.33;1763305;80;20630;-60
2022/05/17 04:35:44;;;;;;;;;;;;;;;16.94;69.27;151909.13;1763608;81;20208;-59
2022/05/17 04:38:11;;;;;;;;;;;;;;;16.96;68.72;151914.33;1763380;80;21229;-58
2022/05/17 04:40:41;;;;;;;;;;;;;;;16.95;68.68;151911.72;1781994;79;20182;-59
2022/05/17 04:43:10;;;;;;;;;;;;;;;16.92;68.33;151903.91;1809627;79;20503;-60
2022/05/17 04:45:37;;;;;;;;;;;;;;;16.90;68.36;151901.25;1809351;79;20527;-59
2022/05/17 04:48:05;;;;;;;;;;;;;;;16.92;68.58;151903.91;1809409;78;20169;-58
2022/05/17 04:50:33;;;;;;;;;;;;;;;17.02;68.35;151930.00;1789815;78;20823;-59
2022/05/17 04:52:59;;;;;;;;;;;;;;;17.07;68.24;151943.03;1786223;79;20419;-60
2022/05/17 04:55:26;;;;;;;;;;;;;;;17.16;67.86;151966.52;1785755;79;20486;-59
2022/05/17 04:57:54;;;;;;;;;;;;;;;17.22;67.02;151980.81;1785811;79;20193;-60
2022/05/17 05:00:24;;;;;;;;;;;;;;;17.30;67.09;152000.39;1786061;79;20224;-59
2022/05/17 05:02:51;;;;;;;;;;;;;;;17.53;66.79;152059.08;1786501;79;21181;-58
2022/05/17 05:05:18;;;;;;;;;;;;;;;17.75;66.12;152113.84;1785877;79;20888;-58
2022/05/17 05:07:46;;;;;;;;;;;;;;;17.94;65.49;152160.81;1785322;80;20190;-59
2022/05/17 05:10:13;;;;;;;;;;;;;;;18.09;64.75;152199.95;1785072;80;20213;-59
2022/05/17 05:12:39;;;;;;;;;;;;;;;18.24;63.90;152237.83;1771297;79;20220;-59
2022/05/17 05:15:07;;;;;;;;;;;;;;;18.39;63.21;152274.33;1767416;80;21109;-59
2022/05/17 05:17:35;;;;;;;;;;;;;;;18.53;62.40;152309.55;1767981;80;20204;-58
2022/05/17 05:20:05;;;;;;;;;;;;;;;18.62;61.43;152333.06;1768761;80;20196;-60
2022/05/17 05:22:32;;;;;;;;;;;;;;;18.74;60.84;152363.08;1768278;80;20513;-59
2022/05/17 05:24:58;;;;;;;;;;;;;;;18.84;60.40;152389.16;1737657;81;20129;-60
2022/05/17 05:27:25;;;;;;;;;;;;;;;18.90;60.58;152403.53;1768355;81;21274;-60
2022/05/17 05:29:52;;;;;;;;;;;;;;;19.00;59.99;152428.38;1768955;81;20236;-60
2022/05/17 05:32:19;;;;;;;;;;;;;;;19.09;58.87;152451.84;1768435;81;20160;-60
2022/05/17 05:34:47;;;;;;;;;;;;;;;19.11;58.16;152455.78;1768698;81;20157;-60
2022/05/17 05:37:14;;;;;;;;;;;;;;;19.12;58.20;152459.72;1768473;80;20191;-60
2022/05/17 05:39:42;;;;;;;;;;;;;;;19.15;58.28;152466.22;1768475;81;20433;-58
2022/05/17 05:42:09;;;;;;;;;;;;;;;19.24;58.12;152488.41;1769861;80;20241;-59
2022/05/17 05:44:36;;;;;;;;;;;;;;;19.28;57.83;152500.17;1769919;81;20200;-60
2022/05/17 05:47:03;;;;;;;;;;;;;;;19.37;58.10;152522.38;1769865;81;20177;-60
2022/05/17 05:49:30;;;;;;;;;;;;;;;19.56;57.63;152570.66;1764508;80;20180;-59
2022/05/17 05:51:57;;;;;;;;;;;;;;;19.68;57.32;152600.69;1750320;82;21796;-61
2022/05/17 05:54:24;;;;;;;;;;;;;;;19.89;57.19;152652.92;1750393;82;20923;-60
2022/05/17 05:56:51;;;;;;;;;;;;;;;20.20;56.67;152731.31;1750572;80;20408;-59
2022/05/17 05:59:17;;;;;;;;;;;;;;;20.49;55.60;152803.19;1749958;82;20677;-60
2022/05/17 06:01:44;;;;;;;;;;;;;;;20.73;54.25;152864.61;1759062;80;20487;-60
2022/05/17 06:04:13;;;;;;;;;;;;;;;20.94;53.74;152916.92;1748582;82;21314;-59
2022/05/17 06:06:42;;;;;;;;;;;;;;;21.11;53.19;152961.38;1716457;82;20206;-58
2022/05/17 06:09:08;;;;;;;;;;;;;;;21.24;52.62;152992.72;1748008;82;20620;-60
2022/05/17 06:11:35;;;;;;;;;;;;;;;21.37;51.90;153026.72;1744336;82;20640;-59
2022/05/17 06:14:04;;;;;;;;;;;;;;;21.45;51.29;153047.61;1750981;82;20645;-60
2022/05/17 06:16:30;;;;;;;;;;;;;;;21.52;50.83;153063.28;1750256;81;21270;-59
2022/05/17 06:18:57;;;;;;;;;;;;;;;21.60;49.89;153085.52;1750293;81;20455;-60
2022/05/17 06:21:24;;;;;;;;;;;;;;;21.66;49.06;153099.95;1747497;81;20174;-59
2022/05/17 06:23:51;;;;;;;;;;;;;;;21.77;48.19;153127.41;1743841;82;20202;-59
2022/05/17 06:26:18;;;;;;;;;;;;;;;21.86;47.23;153149.66;1746612;82;20490;-59
2022/05/17 06:28:45;;;;;;;;;;;;;;;21.84;46.64;153144.42;1740354;80;21878;-60
2022/05/17 06:31:12;;;;;;;;;;;;;;;21.78;46.80;153130.03;1744111;81;20134;-59
2022/05/17 06:33:39;;;;;;;;;;;;;;;21.80;46.89;153133.97;1769514;79;20172;-59
2022/05/17 06:36:06;;;;;;;;;;;;;;;21.77;46.48;153127.41;1767831;80;20462;-58
2022/05/17 06:38:32;;;;;;;;;;;;;;;21.76;46.60;153124.80;1771798;79;20203;-60
2022/05/17 06:40:59;;;;;;;;;;;;;;;21.84;46.37;153144.42;1763882;79;21214;-59
2022/05/17 06:43:27;;;;;;;;;;;;;;;21.90;46.03;153160.09;1764191;80;20224;-60
2022/05/17 06:45:54;;;;;;;;;;;;;;;21.92;45.44;153165.31;1761992;79;20421;-60
2022/05/17 06:48:21;;;;;;;;;;;;;;;21.96;45.22;153175.78;1766479;80;20234;-60
2022/05/17 06:50:48;;;;;;;;;;;;;;;22.00;45.26;153186.28;1768262;79;20291;-59
2022/05/17 06:53:14;;;;;;;;;;;;;;;22.11;44.93;153213.73;1765461;79;21279;-59
2022/05/17 06:55:42;;;;;;;;;;;;;;;22.27;44.05;153254.27;1771008;80;20453;-60
2022/05/17 06:58:09;;;;;;;;;;;;;;;22.37;44.16;153277.78;1750939;80;20476;-60
2022/05/17 07:00:36;;;;;;;;;;;;;;;22.52;43.64;153317.09;1760803;80;20542;-60
2022/05/17 07:03:03;;;;;;;;;;;;;;;22.67;43.10;153353.73;1762670;80;20152;-60
2022/05/17 07:05:30;;;;;;;;;;;;;;;22.80;43.62;153387.72;1757156;80;21237;-59
2022/05/17 07:08:00;;;;;;;;;;;;;;;22.95;43.77;153424.38;1762344;80;20273;-60
2022/05/17 07:13:13;;;;;;;;;;;;;;;23.22;43.33;153492.41;1765905;80;20224;-60
2022/05/17 07:15:42;;;;;;;;;;;;;;;23.24;43.05;153497.64;1734944;81;20148;-60
2022/05/17 07:18:10;;;;;;;;;;;;;;;23.31;43.18;153516.00;1743577;80;21246;-60
2022/05/17 07:20:37;;;;;;;;;;;;;;;23.36;43.80;153527.78;1748373;82;20703;-59
2022/05/17 07:23:04;;;;;;;;;;;;;;;23.37;43.92;153531.73;1748815;81;20228;-60
2022/05/17 07:25:32;;;;;;;;;;;;;;;23.36;44.04;153529.11;1750192;80;20237;-60
2022/05/17 07:28:00;;;;;;;;;;;;;;;23.37;43.97;153530.39;1747859;80;20368;-60
2022/05/17 07:30:27;;;;;;;;;;;;;;;23.34;43.92;153523.88;1748881;82;21295;-60
2022/05/17 07:32:54;;;;;;;;;;;;;;;23.32;44.36;153518.61;1751420;82;20476;-60
2022/05/17 07:35:22;;;;;;;;;;;;;;;23.37;44.34;153531.73;1749644;82;20205;-61
2022/05/17 07:37:49;;;;;;;;;;;;;;;23.37;43.84;153530.39;1757707;80;20195;-61
2022/05/17 07:40:16;;;;;;;;;;;;;;;23.36;43.79;153529.11;1778353;80;20237;-61
2022/05/17 07:42:44;;;;;;;;;;;;;;;23.34;43.59;153523.88;1755276;81;21246;-60
2022/05/17 07:45:11;;;;;;;;;;;;;;;23.33;43.81;153521.27;1754392;80;20180;-61
2022/05/17 07:47:38;;;;;;;;;;;;;;;23.30;43.14;153513.38;1745557;80;20210;-60
2022/05/17 07:50:08;;;;;;;;;;;;;;;23.26;42.76;153502.91;1752769;79;20221;-60
2022/05/17 07:52:36;;;;;;;;;;;;;;;23.16;42.97;153478.00;1748803;80;20153;-60
2022/05/17 07:55:04;;;;;;;;;;;;;;;23.13;42.38;153471.48;1742635;80;21102;-60
2022/05/17 07:57:30;;;;;;;;;;;;;;;23.09;42.42;153460.98;1752822;80;20192;-60
2022/05/17 07:59:57;;;;;;;;;;;;;;;23.07;42.54;153455.75;1752951;80;20197;-60
2022/05/17 08:02:24;;;;;;;;;;;;;;;23.11;42.05;153466.25;1756992;80;20188;-60
2022/05/17 08:04:51;;;;;;;;;;;;;;;23.18;41.46;153484.56;1757510;80;20197;-60
2022/05/17 08:07:18;;;;;;;;;;;;;;;23.20;39.89;153487.17;1752813;79;21154;-60
2022/05/17 08:09:47;;;;;;;;;;;;;;;23.21;40.34;153489.78;1760049;79;20235;-60
2022/05/17 08:12:14;;;;;;;;;;;;;;;23.21;39.93;153489.78;1794159;78;20191;-59
2022/05/17 08:14:41;;;;;;;;;;;;;;;23.16;39.46;153479.33;1756224;79;20478;-61
2022/05/17 08:17:08;;;;;;;;;;;;;;;23.14;39.45;153474.11;1751097;79;20430;-60
2022/05/17 08:19:38;;;;;;;;;;;;;;;23.21;39.58;153491.13;1757336;81;21213;-59
2022/05/17 08:22:06;;;;;;;;;;;;;;;23.28;40.01;153508.14;1761543;80;20330;-61
2022/05/17 08:27:31;;;;;;;;;;;;;;;23.36;39.55;153529.11;1753839;79;20192;-62
2022/05/17 08:29:48;;;;;;;;;;;;;;;23.56;37.94;153580.14;1765333;80;20206;-62
2022/05/17 08:35:03;;;;;;;;;;;;;;;23.68;38.16;153610.25;1752803;79;20187;-61
2022/05/17 08:37:30;;;;;;;;;;;;;;;23.57;37.53;153582.75;1743985;81;20281;-61
2022/05/17 08:39:57;;;;;;;;;;;;;;;23.44;37.36;153550.03;1761266;80;20142;-60
2022/05/17 08:42:27;;;;;;;;;;;;;;;23.31;37.63;153517.31;1757035;81;20348;-60
2022/05/17 08:44:56;;;;;;;;;;;;;;;23.11;37.90;153466.25;1759520;79;21085;-62
2022/05/17 08:47:45;;;;;;;;;;;;;;;22.93;38.57;153419.14;1781377;79;20705;-61
2022/05/17 08:50:14;;;;;;;;;;;;;;;22.78;39.52;153382.50;1724556;81;20184;-60
2022/05/17 08:52:41;;;;;;;;;;;;;;;22.59;39.93;153334.11;1688979;83;20204;-61
2022/05/17 08:55:23;;;;;;;;;;;;;;;22.45;39.72;153300.03;1727718;80;20217;-62
2022/05/17 08:57:53;;;;;;;;;;;;;;;22.31;40.29;153263.39;1736023;81;21149;-60
2022/05/17 09:00:38;;;;;;;;;;;;;;;22.14;40.44;153220.25;1743097;80;20193;-62
2022/05/17 09:03:35;;;;;;;;;;;;;;;22.06;40.46;153199.34;1750989;80;20197;-62
2022/05/17 09:06:15;;;;;;;;;;;;;;;22.01;41.53;153188.89;1758764;81;20481;-61
2022/05/17 09:08:49;;;;;;;;;;;;;;;22.09;41.80;153207.19;1756657;80;20190;-60
2022/05/17 09:11:20;;;;;;;;;;;;;;;22.15;40.01;153222.86;1734113;81;21228;-61
2022/05/17 09:13:54;;;;;;;;;;;;;;;22.12;39.67;153215.02;1747629;80;20634;-61
2022/05/17 09:16:22;;;;;;;;;;;;;;;22.17;39.37;153228.09;1750224;81;20348;-60
2022/05/17 09:18:50;;;;;;;;;;;;;;;22.27;39.09;153254.27;1748881;82;20407;-60
2022/05/17 09:21:33;;;;;;;;;;;;;;;22.35;39.57;153272.56;1749590;81;20292;-61
2022/05/17 09:24:03;;;;;;;;;;;;;;;22.45;39.57;153300.03;1748078;82;21196;-61
2022/05/17 09:26:31;;;;;;;;;;;;;;;22.55;38.95;153324.94;1748916;82;20209;-62
2022/05/17 09:29:01;;;;;;;;;;;;;;;22.63;38.75;153343.23;1749288;82;20175;-61
2022/05/17 09:31:31;;;;;;;;;;;;;;;22.74;38.40;153372.03;1744625;81;20209;-60
2022/05/17 09:34:00;;;;;;;;;;;;;;;22.85;38.05;153400.80;1744805;81;20941;-60
2022/05/17 09:36:31;;;;;;;;;;;;;;;22.91;37.87;153415.19;1744689;81;21385;-62
2022/05/17 09:38:58;;;;;;;;;;;;;;;23.03;37.03;153445.28;1740091;80;20462;-60
2022/05/17 09:41:28;;;;;;;;;;;;;;;23.09;36.84;153460.98;1710098;82;20150;-60
2022/05/17 09:44:00;;;;;;;;;;;;;;;23.20;36.85;153487.17;1744322;82;20471;-60
2022/05/17 09:46:33;;;;;;;;;;;;;;;23.33;36.68;153521.27;1733003;82;20964;-61
2022/05/17 09:55:23;;;;;;;;;;;;;;;23.55;37.00;153576.23;1754823;80;20198;-59
2022/05/17 09:58:04;;;;;;;;;;;;;;;23.63;36.22;153595.83;1758315;80;20158;-62
2022/05/17 10:00:46;;;;;;;;;;;;;;;23.66;36.75;153605.02;1763792;80;20202;-59
2022/05/17 10:03:16;;;;;;;;;;;;;;;23.63;37.78;153595.83;1779343;79;21643;-60
2022/05/17 10:05:46;;;;;;;;;;;;;;;23.63;37.91;153597.16;1767703;79;20209;-61
2022/05/17 10:08:17;;;;;;;;;;;;;;;23.66;38.68;153603.73;1734983;81;20181;-60
2022/05/17 10:10:46;;;;;;;;;;;;;;;23.68;38.04;153608.97;1760006;81;20193;-60
2022/05/17 10:13:25;;;;;;;;;;;;;;;23.67;37.44;153607.62;1731038;83;20139;-61
2022/05/17 10:16:07;;;;;;;;;;;;;;;23.70;37.41;153615.47;1729899;82;21215;-60
2022/05/17 10:18:48;;;;;;;;;;;;;;;23.71;37.04;153618.09;1729232;82;20267;-60
2022/05/17 10:21:20;;;;;;;;;;;;;;;23.70;37.00;153615.47;1730246;82;20163;-61
2022/05/17 10:24:04;;;;;;;;;;;;;;;23.70;36.80;153615.47;1738138;81;20901;-58
2022/05/17 10:26:34;;;;;;;;;;;;;;;23.61;37.08;153591.94;1760906;81;20290;-60
2022/05/17 10:29:04;;;;;;;;;;;;;;;23.56;37.73;153580.14;1761412;81;21050;-61
2022/05/17 10:31:46;;;;;;;;;;;;;;;23.57;37.36;153581.47;1763139;79;20165;-59
2022/05/17 10:34:16;;;;;;;;;;;;;;;23.51;37.41;153565.72;1778749;80;20215;-60
2022/05/17 10:36:45;;;;;;;;;;;;;;;23.49;37.97;153560.50;1790524;80;20211;-61
2022/05/17 10:39:31;;;;;;;;;;;;;;;23.52;37.93;153568.34;1762877;80;20445;-60
2022/05/17 10:41:58;;;;;;;;;;;;;;;23.46;38.02;153555.27;1760893;80;21247;-60
2022/05/17 10:44:27;;;;;;;;;;;;;;;23.40;38.27;153539.58;1760205;80;20459;-62
2022/05/17 10:46:56;;;;;;;;;;;;;;;23.32;38.42;153518.61;1754875;80;20140;-60
2022/05/17 10:49:46;;;;;;;;;;;;;;;23.20;39.65;153487.17;1724565;79;20562;-61
2022/05/17 10:52:32;;;;;;;;;;;;;;;23.07;40.81;153455.75;1748929;80;20205;-61
2022/05/17 10:55:06;;;;;;;;;;;;;;;22.94;43.83;153421.77;1751814;80;21460;-60
2022/05/17 10:57:56;;;;;;;;;;;;;;;22.78;46.09;153382.50;1753280;80;20174;-61
2022/05/17 11:00:26;;;;;;;;;;;;;;;22.64;47.16;153347.19;1754506;80;20241;-60
2022/05/17 11:03:31;;;;;;;;;;;;;;;22.58;48.46;153332.78;1760236;80;20470;-61
2022/05/17 11:06:22;;;;;;;;;;;;;;;22.48;49.84;153305.31;1730331;80;20188;-60
2022/05/17 11:08:59;;;;;;;;;;;;;;;22.36;48.79;153275.17;1740636;80;20648;-61
2022/05/17 11:11:30;;;;;;;;;;;;;;;22.37;50.60;153277.78;1714545;80;20481;-61
2022/05/17 11:14:05;;;;;;;;;;;;;;;22.25;50.79;153249.03;1752811;80;20186;-60
2022/05/17 11:16:44;;;;;;;;;;;;;;;22.16;51.31;153225.47;1757672;80;20596;-60
2022/05/17 11:19:36;;;;;;;;;;;;;;;22.11;50.75;153212.41;1730340;80;20189;-60
2022/05/17 11:22:12;;;;;;;;;;;;;;;22.00;50.36;153186.28;1759533;80;21232;-61
2022/05/17 11:24:50;;;;;;;;;;;;;;;21.98;51.53;153181.00;1771322;80;20171;-60
2022/05/17 11:27:37;;;;;;;;;;;;;;;22.04;51.86;153196.72;1784302;80;20192;-61
2022/05/17 11:30:20;;;;;;;;;;;;;;;22.08;52.37;153204.56;1757000;80;20189;-60
2022/05/17 11:33:07;;;;;;;;;;;;;;;22.21;54.22;153238.53;1757864;80;20194;-61
2022/05/17 11:35:37;;;;;;;;;;;;;;;22.31;55.04;153264.72;1736578;80;21257;-60
2022/05/17 11:38:07;;;;;;;;;;;;;;;22.33;54.93;153269.95;1774807;80;20135;-60
2022/05/17 11:40:49;;;;;;;;;;;;;;;22.24;55.45;153246.44;1774548;80;20198;-59
2022/05/17 11:46:26;;;;;;;;;;;;;;;22.10;54.08;153209.80;1757967;80;20334;-59
2022/05/17 11:48:56;;;;;;;;;;;;;;;21.99;52.61;153182.33;1752741;80;21156;-59
2022/05/17 11:51:24;;;;;;;;;;;;;;;21.97;53.45;153177.11;1756697;80;20461;-60
2022/05/17 11:53:51;;;;;;;;;;;;;;;21.93;53.94;153166.66;1767685;80;20420;-60
2022/05/17 11:56:35;;;;;;;;;;;;;;;21.82;54.33;153140.47;1778513;80;20507;-61
2022/05/17 11:59:01;;;;;;;;;;;;;;;21.72;54.94;153115.63;1735248;82;20194;-61
2022/05/17 12:01:32;;;;;;;;;;;;;;;21.67;55.43;153102.56;1698740;81;21943;-60
2022/05/17 12:04:02;;;;;;;;;;;;;;;21.57;55.38;153076.39;1751505;81;20221;-60
2022/05/17 12:06:49;;;;;;;;;;;;;;;21.51;55.39;153062.00;1769322;79;20215;-60
2022/05/17 12:09:22;;;;;;;;;;;;;;;21.51;55.50;153060.67;1766213;80;20176;-59
2022/05/17 12:12:11;;;;;;;;;;;;;;;21.42;55.03;153039.78;1767504;79;20201;-59
2022/05/17 12:14:58;;;;;;;;;;;;;;;21.36;53.77;153022.78;1736034;82;21238;-59
2022/05/17 12:17:41;;;;;;;;;;;;;;;21.35;52.21;153021.50;1743442;81;20244;-60
2022/05/17 12:20:18;;;;;;;;;;;;;;;21.32;52.75;153013.61;1741239;80;20199;-60
2022/05/17 12:23:05;;;;;;;;;;;;;;;21.24;54.51;152994.05;1760141;79;20200;-60
2022/05/17 12:25:47;;;;;;;;;;;;;;;21.18;55.36;152979.66;1762580;79;20198;-60
2022/05/17 12:28:25;;;;;;;;;;;;;;;21.12;54.81;152962.66;1760451;81;21228;-60
2022/05/17 12:30:53;;;;;;;;;;;;;;;21.07;56.37;152950.88;1762318;81;20232;-60
2022/05/17 12:33:24;;;;;;;;;;;;;;;21.08;56.22;152953.48;1754763;79;20458;-60
2022/05/17 12:35:52;;;;;;;;;;;;;;;21.00;55.74;152932.59;1775516;79;20210;-59
2022/05/17 12:44:06;;;;;;;;;;;;;;;20.93;59.97;152914.31;1767603;80;20169;-60
2022/05/17 12:46:35;;;;;;;;;;;;;;;20.91;61.75;152909.09;1790530;80;20135;-59
2022/05/17 12:49:04;;;;;;;;;;;;;;;20.94;62.96;152916.92;1793651;80;20948;-60
2022/05/17 12:51:31;;;;;;;;;;;;;;;20.92;63.80;152911.70;1791139;80;20481;-59
2022/05/17 12:54:03;;;;;;;;;;;;;;;20.90;65.08;152907.77;1779350;79;21255;-59
2022/05/17 12:56:36;;;;;;;;;;;;;;;20.95;65.51;152919.53;1760167;80;20178;-58
2022/05/17 12:59:06;;;;;;;;;;;;;;;20.93;65.97;152915.59;1748394;80;20147;-58
2022/05/17 13:01:41;;;;;;;;;;;;;;;20.93;66.03;152914.31;1766724;80;20538;-60
2022/05/17 13:04:13;;;;;;;;;;;;;;;20.93;67.21;152914.31;1733721;80;20184;-58
2022/05/17 13:06:45;;;;;;;;;;;;;;;20.89;68.14;152906.48;1744636;80;21230;-59
2022/05/17 13:09:19;;;;;;;;;;;;;;;20.88;69.22;152903.81;1743363;80;20237;-59
2022/05/17 13:11:46;;;;;;;;;;;;;;;20.93;69.68;152914.31;1746448;80;20206;-58
2022/05/17 13:14:32;;;;;;;;;;;;;;;20.98;69.71;152927.38;1738592;80;20204;-58
2022/05/17 13:17:08;;;;;;;;;;;;;;;20.93;69.98;152914.31;1716482;82;20176;-58